Wednesday, November 22, 2017, 9:03 AM GMT
Back to Local

CYHZ, Halifax International Airport

Location: , , Canada Lat: 44.883
Local Time: 9:03 AM GMT ( 9:03 GMT) Lon: -63.5
Time Zone: GMT Elev: 475 ft

Show me the last for .
Show Decoded

2017-11-22 08:00 METAR CYHZ 220800Z 21010KT 12SM FEW010 FEW025 09/08 A3008 RMK SF1SC1 SLP192 =
2017-11-22 07:00 METAR CYHZ 220700Z 21011G18KT 12SM FEW025 FEW200 09/08 A3009 RMK SC1CI1 SLP196 =
2017-11-22 06:00 METAR CYHZ 220600Z 22013KT 12SM FEW012 BKN020 09/08 A3009 RMK SF2SC4 SLP197 =
2017-11-22 05:00 METAR CYHZ 220500Z 22011KT 15SM FEW013 BKN027 09/08 A3009 RMK SF2SC5 SLP195 =
2017-11-22 04:00 METAR CYHZ 220400Z 20011G17KT 15SM FEW012 SCT027 08/08 A3009 RMK SF1SC3 SLP195 =
2017-11-22 03:00 METAR CYHZ 220300Z 20010KT 15SM FEW030 07/07 A3009 RMK SC1 SLP198 =
2017-11-22 02:00 METAR CYHZ 220200Z 18008KT 15SM SKC 05/04 A3009 RMK SLP198 =
2017-11-22 01:00 METAR CYHZ 220100Z 16008KT 15SM SKC 04/04 A3011 RMK SLP204 =
2017-11-22 00:00 METAR CYHZ 220000Z 16007KT 15SM SKC 02/01 A3011 RMK SLP206 =
2017-11-21 23:00 METAR CYHZ 212300Z 14010KT 15SM SKC 01/M01 A3011 RMK SLP206 =
2017-11-21 22:00 METAR CYHZ 212200Z 17009KT 15SM SKC 01/M02 A3011 RMK SLP205 =
2017-11-21 21:00 METAR CYHZ 212100Z 18006KT 15SM FEW260 01/M03 A3011 RMK CI1 SLP206 =
2017-11-21 20:00 METAR CYHZ 212000Z 19006KT 15SM SKC 04/M03 A3010 RMK SLP202 =
2017-11-21 19:00 METAR CYHZ 211900Z 23011G17KT 15SM SKC 04/M03 A3010 RMK SLP202 =
2017-11-21 18:00 METAR CYHZ 211800Z 25010KT 15SM FEW250 03/M06 A3009 RMK CI1 SLP199 =
2017-11-21 17:00 METAR CYHZ 211700Z 26010KT 15SM FEW250 01/M08 A3011 RMK CI1 SLP205 =
2017-11-21 16:00 METAR CYHZ 211600Z 27014KT 15SM SKC M01/M08 A3011 RMK SLP205 =
2017-11-21 15:00 METAR CYHZ 211500Z 26011KT 15SM FEW020 M02/M08 A3011 RMK SC1 SLP204 =
2017-11-21 14:00 METAR CYHZ 211400Z 26014G19KT 15SM FEW020 M03/M08 A3009 RMK SC1 SLP200 =
2017-11-21 13:00 METAR CYHZ 211300Z 29011G20KT 15SM FEW020 M04/M08 A3006 RMK SC1 SLP189 =
2017-11-21 12:00 METAR CYHZ 211200Z 29009G16KT 240V310 15SM FEW020 M05/M08 A3004 RMK SC2 SLP181 =
2017-11-21 11:00 METAR CYHZ 211100Z 28012G20KT 15SM BKN020 M05/M08 A3001 RMK SC7 SLP173 =
2017-11-21 10:00 METAR CYHZ 211000Z 27012KT 15SM SCT019 M05/M08 A2997 RMK SC3 SLP158 =

Support USWX by starting your Amazon purchase here.